• Join FlightAware (Why Join?)
  • Login
  • US Flag 
12:32AM EST


 

Airport Tracker/Info


-or-


 

Live Flight TrackerFlight Track Log ✈ N234CE ✈ 19-Jul-2013 ✈ PACX / CXF - PAFA / FAI

Flight Track Log - Related Links

Times and Time Zones

All times are in EDT time to prevent confusion due to time zone crossing. See the N234CE flight status page for this flight to view local times or setup timezone preferences in your user account.

Time Position Orientation Groundspeed Altitude Reporting Facility
EDT Latitude Longitude Course Direction KTS MPH feet Rate Location/Type
03:05AM 67.0667 -150.2500 150° Southeast 120 138 6,000  Level Anchorage Center
03:06AM 67.0333 -150.2000 150° Southeast 110 127 6,800 660 Climbing Anchorage Center
03:07AM 67.0000 -150.1667 159° South 130 150 7,400 600 Climbing Anchorage Center
03:08AM 66.9667 -150.1333 159° South 140 161 8,100 780 Climbing Anchorage Center
03:09AM 66.9333 -150.1000 159° South 130 150 9,000 420 Climbing Anchorage Center
03:10AM 66.9000 -150.0667 159° South 180 207 9,000  Level Anchorage Center
03:11AM 66.8500 -150.0167 159° South 170 196 9,000  Level Anchorage Center
03:12AM 66.8000 -149.9667 158° South 180 207 9,000  Level Anchorage Center
03:13AM 66.7667 -149.9333 158° South 170 196 9,000  Level Anchorage Center
03:14AM 66.7167 -149.8833 158° South 190 219 9,000  Level Anchorage Center
03:15AM 66.6667 -149.8500 165° South 170 196 9,000  Level Anchorage Center
03:16AM 66.6333 -149.8000 149° Southeast 180 207 9,000  Level Anchorage Center
03:17AM 66.5833 -149.7333 152° Southeast 180 207 9,000  Level Anchorage Center
03:18AM 66.5500 -149.6667 141° Southeast 170 196 9,000  Level Anchorage Center
03:19AM 66.5000 -149.6167 158° South 170 196 9,000  Level Anchorage Center
03:20AM 66.4667 -149.5500 141° Southeast 170 196 9,000  Level Anchorage Center
03:21AM 66.4167 -149.4667 146° Southeast 190 219 9,000  Level Anchorage Center
03:22AM 66.3667 -149.4000 152° Southeast 180 207 9,000  Level Anchorage Center
03:23AM 66.3333 -149.3333 141° Southeast 180 207 9,000  Level Anchorage Center
03:24AM 66.2833 -149.2667 152° Southeast 180 207 9,000  Level Anchorage Center
03:25AM 66.2500 -149.2167 149° Southeast 170 196 9,000  Level Anchorage Center
03:26AM 66.2000 -149.1333 146° Southeast 180 207 9,000  Level Anchorage Center
03:27AM 66.1667 -149.0667 141° Southeast 170 196 9,000  Level Anchorage Center
03:28AM 66.1167 -149.0167 158° South 180 207 9,000  Level Anchorage Center
03:29AM 66.0833 -148.9333 135° Southeast 190 219 9,000  Level Anchorage Center
03:30AM 66.0333 -148.8833 158° South 180 207 9,000 -120 Level Anchorage Center
03:31AM 66.0000 -148.8167 141° Southeast 190 219 8,800 -420 Descending Anchorage Center
03:32AM 65.9500 -148.7500 151° Southeast 190 219 8,200 -600 Descending Anchorage Center
03:33AM 65.9000 -148.6833 151° Southeast 200 230 7,600 -600 Descending Anchorage Center
03:34AM 65.8500 -148.6000 146° Southeast 200 230 7,100 -300 Descending Anchorage Center
03:35AM 65.8000 -148.5333 151° Southeast 190 219 7,100  Level Anchorage Center
03:36AM 65.7667 -148.4667 141° Southeast 170 196 7,100  Level Anchorage Center
03:37AM 65.7167 -148.4000 151° Southeast 190 219 7,100  Level Anchorage Center
03:38AM 65.6833 -148.3500 148° Southeast 170 196 7,100  Level Anchorage Center
03:39AM 65.6333 -148.2833 151° Southeast 180 207 7,100  Level Anchorage Center
03:40AM 65.6000 -148.2333 148° Southeast 170 196 7,100  Level Anchorage Center
03:41AM 65.5500 -148.1667 151° Southeast 180 207 7,100  Level Anchorage Center
03:42AM 65.5167 -148.1000 140° Southeast 190 219 7,100  Level Anchorage Center
03:43AM 65.4667 -148.0500 157° South 180 207 7,100  Level Anchorage Center
03:45AM 65.4153 -147.9595 144° Southeast  Level FlightAware Approximate
03:52AM 65.1520 -147.5701 153° Southeast  Level FlightAware Approximate
03:53AM 65.1123 -147.5232 154° Southeast  Level FlightAware Approximate
03:54AM 65.0725 -147.4764 154° Southeast  Level FlightAware Approximate
03:55AM 65.0323 -147.4351 218° Southwest  Level FlightAware Approximate
03:56AM 64.9972 -147.4995 218° Southwest  Level FlightAware Approximate
03:57AM 64.9621 -147.5636 218° Southwest  Level FlightAware Approximate
03:58AM 64.9269 -147.6276 218° Southwest  Level FlightAware Approximate
03:59AM 64.8917 -147.6914 218° Southwest  Level FlightAware Approximate
04:00AM 64.8565 -147.7550 218° Southwest  Level FlightAware Approximate
04:01AM 64.8204 -147.8160 215° Southwest  Level FlightAware Approximate
04:02AM 64.8000 -147.8500 215° Southwest  Level FlightAware Approximate
04:03AM 64.8151 -147.8564 215° Southwest  Level Estimated
04:04AM 64.8151 -147.8564 215° Southwest  Level Estimated
04:05AM 64.8151 -147.8564 215° Southwest  Level Estimated
04:06AM 64.8151 -147.8564 215° Southwest  Level Estimated
04:07AM 64.8151 -147.8564 215° Southwest  Level Estimated
04:08AM 64.8151 -147.8564 215° Southwest  Level Estimated
04:09AM 64.8151 -147.8564 215° Southwest  Level Estimated
04:10AM 64.8151 -147.8564 215° Southwest  Level Estimated
04:11AM 64.8151 -147.8564 215° Southwest  Level Estimated
04:12AM 64.8151 -147.8564 215° Southwest  Level Estimated
04:13AM 64.8151 -147.8564 215° Southwest  Level Estimated
04:14AM 64.8151 -147.8564 215° Southwest  Level Estimated
04:15AM 64.8151 -147.8564 215° Southwest  Level Estimated